createdAt,value
2018-09-27T00:00:38.429Z,102232.66
2018-09-27T00:03:06.011Z,102233.59
2018-09-27T00:05:33.458Z,102237.33
2018-09-27T00:08:00.866Z,102234.51
2018-09-27T00:10:28.338Z,102248.63
2018-09-27T00:12:56.041Z,102238.50
2018-09-27T00:15:23.445Z,102238.05
2018-09-27T00:17:50.805Z,102238.11
2018-09-27T00:20:18.278Z,102237.73
2018-09-27T00:22:45.664Z,102229.08
2018-09-27T00:25:13.125Z,102229.33
2018-09-27T00:27:40.586Z,102228.65
2018-09-27T00:30:08.076Z,102230.49
2018-09-27T00:32:35.549Z,102230.88
2018-09-27T00:35:03.118Z,102225.63
2018-09-27T00:37:30.749Z,102230.83
2018-09-27T00:39:58.272Z,102220.83
2018-09-27T00:42:25.758Z,102225.69
2018-09-27T00:44:53.207Z,102224.95
2018-09-27T00:47:20.679Z,102231.66
2018-09-27T00:49:48.250Z,102232.23
2018-09-27T00:52:15.999Z,102226.66
2018-09-27T00:54:43.417Z,102217.37
2018-09-27T00:57:11.269Z,102218.73
2018-09-27T00:59:38.745Z,102214.98
2018-09-27T01:02:06.402Z,102213.86
2018-09-27T01:04:33.923Z,102218.44
2018-09-27T01:07:01.457Z,102207.73
2018-09-27T01:09:28.857Z,102203.02
2018-09-27T01:11:56.288Z,102203.17
2018-09-27T01:14:23.718Z,102201.94
2018-09-27T01:16:51.128Z,102204.95
2018-09-27T01:19:18.555Z,102215.98
2018-09-27T01:21:45.987Z,102209.19
2018-09-27T01:24:13.494Z,102213.25
2018-09-27T01:26:41.011Z,102218.45
2018-09-27T01:29:08.458Z,102218.08
2018-09-27T01:31:35.858Z,102212.98
2018-09-27T01:34:03.619Z,102204.39
2018-09-27T01:36:31.041Z,102203.47
2018-09-27T01:38:58.448Z,102195.68
2018-09-27T01:41:25.922Z,102191.55
2018-09-27T01:43:53.424Z,102183.44
2018-09-27T01:46:20.992Z,102183.05
2018-09-27T01:48:48.547Z,102176.25
2018-09-27T01:51:15.995Z,102175.86
2018-09-27T01:53:43.417Z,102169.83
2018-09-27T01:56:11.145Z,102170.61
2018-09-27T01:58:38.536Z,102180.14
2018-09-27T02:01:06.456Z,102177.05
2018-09-27T02:03:33.884Z,102184.11
2018-09-27T02:06:01.339Z,102179.86
2018-09-27T02:08:28.740Z,102177.45
2018-09-27T02:10:56.394Z,102170.94
2018-09-27T02:13:23.753Z,102169.81
2018-09-27T02:15:51.274Z,102167.24
2018-09-27T02:18:18.676Z,102160.82
2018-09-27T02:20:46.134Z,102166.91
2018-09-27T02:23:13.527Z,102161.22
2018-09-27T02:25:41.047Z,102167.48
2018-09-27T02:28:08.561Z,102160.72
2018-09-27T02:30:36.447Z,102158.14
2018-09-27T02:33:04.000Z,102154.73
2018-09-27T02:35:31.446Z,102158.91
2018-09-27T02:37:58.869Z,102157.67
2018-09-27T02:40:26.321Z,102156.02
2018-09-27T02:42:53.717Z,102154.42
2018-09-27T02:45:21.155Z,102146.21
2018-09-27T02:47:48.698Z,102145.95
2018-09-27T02:50:16.142Z,102148.33
2018-09-27T02:52:43.656Z,102152.39
2018-09-27T02:55:11.348Z,102145.45
2018-09-27T02:57:38.786Z,102142.43
2018-09-27T03:00:06.357Z,102143.22
2018-09-27T03:02:33.926Z,102133.66
2018-09-27T03:05:01.350Z,102142.09
2018-09-27T03:07:29.018Z,102137.38
2018-09-27T03:09:56.614Z,102145.80
2018-09-27T03:12:24.034Z,102144.15
2018-09-27T03:14:51.440Z,102149.27
2018-09-27T03:17:18.870Z,102155.77
2018-09-27T03:19:46.265Z,102149.66
2018-09-27T03:22:13.688Z,102141.22
2018-09-27T03:24:41.370Z,102140.48
2018-09-27T03:27:08.806Z,102142.45
2018-09-27T03:29:36.450Z,102145.55
2018-09-27T03:32:03.920Z,102146.55
2018-09-27T03:34:31.321Z,102149.74
2018-09-27T03:36:59.035Z,102149.45
2018-09-27T03:39:26.632Z,102147.34
2018-09-27T03:41:54.157Z,102146.08
2018-09-27T03:44:21.584Z,102138.52
2018-09-27T03:46:49.002Z,102134.07
2018-09-27T03:49:16.433Z,102133.50
2018-09-27T03:51:43.848Z,102131.00
2018-09-27T03:54:11.474Z,102126.36
2018-09-27T03:56:38.998Z,102131.60
2018-09-27T03:59:06.389Z,102127.38
2018-09-27T04:01:33.910Z,102117.97
2018-09-27T04:04:01.577Z,102123.91
2018-09-27T04:06:29.002Z,102115.75
2018-09-27T04:08:56.577Z,102117.19
2018-09-27T04:11:24.046Z,102113.05
2018-09-27T04:13:51.562Z,102112.80
2018-09-27T04:16:19.133Z,102115.16
2018-09-27T04:18:46.937Z,102118.80
2018-09-27T04:21:14.366Z,102118.53
2018-09-27T04:23:41.798Z,102119.94
2018-09-27T04:26:09.394Z,102119.84
2018-09-27T04:28:36.810Z,102120.50
2018-09-27T04:31:04.354Z,102116.58
2018-09-27T04:33:31.774Z,102115.22
2018-09-27T04:35:59.206Z,102120.45
2018-09-27T04:38:26.623Z,102112.30
2018-09-27T04:40:54.288Z,102109.11
2018-09-27T04:43:21.814Z,102111.52
2018-09-27T04:45:49.646Z,102108.72
2018-09-27T04:48:17.022Z,102113.78
2018-09-27T04:50:44.416Z,102106.88
2018-09-27T04:53:11.857Z,102110.29
2018-09-27T04:55:39.284Z,102109.16
2018-09-27T04:58:06.770Z,102107.57
2018-09-27T05:00:34.211Z,102107.41
2018-09-27T05:03:01.638Z,102111.46
2018-09-27T05:05:29.177Z,102116.05
2018-09-27T05:07:56.641Z,102115.05
2018-09-27T05:10:24.040Z,102109.33
2018-09-27T05:12:51.428Z,102113.73
2018-09-27T05:15:18.870Z,102109.81
2018-09-27T05:17:46.240Z,102109.41
2018-09-27T05:20:13.670Z,102104.97
2018-09-27T05:22:41.164Z,102110.64
2018-09-27T05:25:08.633Z,102110.59
2018-09-27T05:27:36.156Z,102109.59
2018-09-27T05:30:03.734Z,102108.20
2018-09-27T05:32:31.153Z,102102.39
2018-09-27T05:34:58.633Z,102103.30
2018-09-27T05:37:26.086Z,102104.37
2018-09-27T05:39:53.506Z,102103.63
2018-09-27T05:42:20.952Z,102111.08
2018-09-27T05:44:48.384Z,102111.58
2018-09-27T05:47:15.800Z,102112.86
2018-09-27T05:49:43.240Z,102111.86
2018-09-27T05:52:10.688Z,102115.34
2018-09-27T05:54:38.096Z,102102.84
2018-09-27T05:57:05.602Z,102114.34
2018-09-27T05:59:33.174Z,102112.83
2018-09-27T06:02:00.648Z,102112.87
2018-09-27T06:04:28.052Z,102109.27
2018-09-27T06:06:55.569Z,102108.00
2018-09-27T06:09:22.983Z,102103.06
2018-09-27T06:11:50.418Z,102101.86
2018-09-27T06:14:17.867Z,102111.05
2018-09-27T06:16:45.313Z,102105.00
2018-09-27T06:19:12.728Z,102113.91
2018-09-27T06:21:40.263Z,102102.88
2018-09-27T06:24:07.953Z,102101.81
2018-09-27T06:26:35.377Z,102106.26
2018-09-27T06:29:02.889Z,102103.42
2018-09-27T06:31:30.348Z,102103.11
2018-09-27T06:33:57.993Z,102099.41
2018-09-27T06:36:25.577Z,102106.95
2018-09-27T06:38:53.253Z,102102.52
2018-09-27T06:41:20.744Z,102101.89
2018-09-27T06:43:48.178Z,102108.69
2018-09-27T06:46:15.659Z,102109.11
2018-09-27T06:48:43.127Z,102104.47
2018-09-27T06:51:10.539Z,102106.70
2018-09-27T06:53:37.966Z,102099.22
2018-09-27T06:56:05.972Z,102094.70
2018-09-27T06:58:33.381Z,102089.86
2018-09-27T07:01:00.965Z,102096.31
2018-09-27T07:03:28.307Z,102104.35
2018-09-27T07:05:55.854Z,102097.97
2018-09-27T07:08:23.333Z,102100.52
2018-09-27T07:10:50.721Z,102094.47
2018-09-27T07:13:18.147Z,102102.52
2018-09-27T07:15:45.577Z,102101.26
2018-09-27T07:18:12.987Z,102093.09
2018-09-27T07:20:40.608Z,102094.39
2018-09-27T07:23:08.053Z,102091.73
2018-09-27T07:25:35.439Z,102086.33
2018-09-27T07:28:02.990Z,102088.39
2018-09-27T07:30:30.429Z,102087.34
2018-09-27T07:32:57.830Z,102075.98
2018-09-27T07:35:25.317Z,102084.89
2018-09-27T07:37:52.972Z,102082.80
2018-09-27T07:40:20.401Z,102085.64
2018-09-27T07:42:48.010Z,102095.41
2018-09-27T07:45:15.434Z,102087.47
2018-09-27T07:47:42.941Z,102092.19
2018-09-27T07:50:10.467Z,102094.84
2018-09-27T07:52:37.950Z,102087.99
2018-09-27T07:55:05.511Z,102086.88
2018-09-27T07:57:32.931Z,102084.62
2018-09-27T08:00:00.453Z,102085.16
2018-09-27T08:02:27.878Z,102086.48
2018-09-27T08:04:55.309Z,102085.22
2018-09-27T08:07:22.712Z,102076.00
2018-09-27T08:09:50.106Z,102076.59
2018-09-27T08:12:17.527Z,102073.27
2018-09-27T08:14:44.988Z,102074.71
2018-09-27T08:17:12.387Z,102077.92
2018-09-27T08:19:39.778Z,102070.09
2018-09-27T08:22:07.339Z,102070.99
2018-09-27T08:24:34.711Z,102068.33
2018-09-27T08:27:02.146Z,102065.41
2018-09-27T08:29:29.710Z,102068.08
2018-09-27T08:31:57.098Z,102064.60
2018-09-27T08:34:24.640Z,102061.70
2018-09-27T08:36:52.041Z,102063.71
2018-09-27T08:39:19.448Z,102057.28
2018-09-27T08:41:46.865Z,102049.59
2018-09-27T08:44:14.240Z,102048.98
2018-09-27T08:46:42.316Z,102045.46
2018-09-27T08:49:09.742Z,102042.12
2018-09-27T08:51:37.359Z,102041.86
2018-09-27T08:54:04.724Z,102042.53
2018-09-27T08:56:32.280Z,102038.87
2018-09-27T08:58:59.622Z,102032.38
2018-09-27T09:01:27.123Z,102030.55
2018-09-27T09:03:54.542Z,102024.91
2018-09-27T09:06:22.126Z,102024.56
2018-09-27T09:08:49.514Z,102025.04
2018-09-27T09:11:16.998Z,102018.67
2018-09-27T09:13:44.490Z,102018.42
2018-09-27T09:16:11.870Z,102013.94
2018-09-27T09:18:39.322Z,102017.75
2018-09-27T09:21:07.079Z,102017.69
2018-09-27T09:23:34.922Z,102006.58
2018-09-27T09:26:02.499Z,102006.00
2018-09-27T09:28:29.938Z,102004.34
2018-09-27T09:30:57.494Z,102002.11
2018-09-27T09:33:25.066Z,101997.66
2018-09-27T09:35:52.675Z,101990.05
2018-09-27T09:38:20.043Z,101986.75
2018-09-27T09:40:47.514Z,101982.96
2018-09-27T09:43:15.079Z,101975.41
2018-09-27T09:45:42.690Z,101984.48
2018-09-27T09:48:10.378Z,101980.64
2018-09-27T09:50:37.862Z,101979.78
2018-09-27T09:53:05.358Z,101977.46
2018-09-27T09:55:32.878Z,101973.53
2018-09-27T09:58:00.402Z,101973.30
2018-09-27T10:00:28.130Z,101966.61
2018-09-27T10:02:55.846Z,101961.21
2018-09-27T10:05:23.287Z,101959.28
2018-09-27T10:07:50.698Z,101952.20
2018-09-27T10:10:18.186Z,101953.75
2018-09-27T10:12:45.564Z,101952.22
2018-09-27T10:15:12.982Z,101948.15
2018-09-27T10:17:40.534Z,101940.41
2018-09-27T10:20:08.006Z,101934.16
2018-09-27T10:22:35.424Z,101927.03
2018-09-27T10:25:03.120Z,101929.95
2018-09-27T10:27:30.719Z,101925.27
2018-09-27T10:29:58.102Z,101925.09
2018-09-27T10:32:25.548Z,101920.17
2018-09-27T10:34:53.124Z,101913.14
2018-09-27T10:37:20.595Z,101920.59
2018-09-27T10:39:48.502Z,101915.17
2018-09-27T10:42:16.424Z,101910.01
2018-09-27T10:44:43.821Z,101913.59
2018-09-27T10:47:11.305Z,101907.04
2018-09-27T10:49:38.793Z,101907.04
2018-09-27T10:52:06.682Z,101897.77
2018-09-27T10:54:34.101Z,101902.47
2018-09-27T10:57:01.647Z,101893.19
2018-09-27T10:59:29.138Z,101897.76
2018-09-27T11:01:56.744Z,101894.31
2018-09-27T11:04:24.469Z,101886.77
2018-09-27T11:06:51.962Z,101883.27
2018-09-27T11:09:19.401Z,101877.05
2018-09-27T11:11:46.928Z,101875.48
2018-09-27T11:14:14.320Z,101867.44
2018-09-27T11:16:41.859Z,101867.45
2018-09-27T11:19:09.240Z,101861.34
2018-09-27T11:21:36.739Z,101861.03
2018-09-27T11:24:04.206Z,101849.12
2018-09-27T11:26:31.696Z,101844.73
2018-09-27T11:30:05.766Z,101840.72
2018-09-27T11:32:37.775Z,101831.92
2018-09-27T11:35:06.466Z,101827.91
2018-09-27T11:37:34.005Z,101829.68
2018-09-27T11:40:01.463Z,101820.23
2018-09-27T11:42:29.046Z,101812.54
2018-09-27T11:44:56.435Z,101812.77
2018-09-27T11:47:23.868Z,101804.81
2018-09-27T11:49:51.419Z,101802.80
2018-09-27T11:52:18.769Z,101802.80
2018-09-27T11:54:46.307Z,101790.08
2018-09-27T11:57:13.887Z,101778.50
2018-09-27T11:59:41.337Z,101773.66
2018-09-27T12:02:08.734Z,101765.97
2018-09-27T12:04:36.217Z,101764.77
2018-09-27T12:07:03.908Z,101755.44
2018-09-27T12:09:31.453Z,101756.66
2018-09-27T12:11:59.627Z,101752.83
2018-09-27T12:14:27.061Z,101748.34
2018-09-27T12:16:54.637Z,101742.18
2018-09-27T12:19:22.237Z,101735.34
2018-09-27T12:21:49.773Z,101734.92
2018-09-27T12:24:17.173Z,101722.71
2018-09-27T12:26:44.663Z,101722.42
2018-09-27T12:29:12.348Z,101713.60
2018-09-27T12:31:39.902Z,101705.95
2018-09-27T12:34:07.432Z,101704.49
2018-09-27T12:36:34.816Z,101703.49
2018-09-27T12:39:03.915Z,101700.11
2018-09-27T12:41:31.572Z,101698.42
2018-09-27T12:43:58.996Z,101688.41
2018-09-27T12:46:26.497Z,101693.10
2018-09-27T12:48:54.478Z,101687.89
2018-09-27T12:51:22.049Z,101681.70
2018-09-27T12:53:49.369Z,101675.59
2018-09-27T12:56:16.961Z,101670.73
2018-09-27T12:58:44.553Z,101662.17
2018-09-27T13:01:12.033Z,101655.66
2018-09-27T13:03:39.390Z,101650.78
2018-09-27T13:06:06.939Z,101643.20
2018-09-27T13:08:34.489Z,101635.12
2018-09-27T13:11:01.946Z,101633.45
2018-09-27T13:13:29.585Z,101625.41
2018-09-27T13:15:56.880Z,101621.53
2018-09-27T13:18:24.348Z,101613.19
2018-09-27T13:20:51.758Z,101603.85
2018-09-27T13:23:19.140Z,101596.97
2018-09-27T13:25:46.786Z,101593.27
2018-09-27T13:28:14.317Z,101588.93
2018-09-27T13:30:41.754Z,101577.04
2018-09-27T13:33:09.289Z,101574.03
2018-09-27T13:35:36.674Z,101567.14
2018-09-27T13:38:04.204Z,101563.95
2018-09-27T13:40:31.806Z,101557.58
2018-09-27T13:42:59.362Z,101548.87
2018-09-27T13:45:26.857Z,101544.33
2018-09-27T13:47:55.532Z,101545.16
2018-09-27T13:50:23.003Z,101540.62
2018-09-27T13:52:50.507Z,101532.28
2018-09-27T13:55:17.996Z,101526.05
2018-09-27T13:57:45.458Z,101526.04
2018-09-27T14:00:12.912Z,101525.20
2018-09-27T14:02:40.383Z,101518.17
2018-09-27T14:05:07.822Z,101509.13
2018-09-27T14:07:35.330Z,101510.14
2018-09-27T14:10:03.043Z,101500.73
2018-09-27T14:12:30.420Z,101501.58
2018-09-27T14:14:57.948Z,101497.53
2018-09-27T14:17:25.404Z,101490.98
2018-09-27T14:19:52.922Z,101486.32
2018-09-27T14:22:20.347Z,101483.49
2018-09-27T14:24:47.808Z,101477.59
2018-09-27T14:27:15.248Z,101482.30
2018-09-27T14:29:42.657Z,101474.92
2018-09-27T14:32:10.125Z,101471.91
2018-09-27T14:34:37.564Z,101470.05
2018-09-27T14:37:05.021Z,101466.21
2018-09-27T14:39:32.643Z,101467.54
2018-09-27T14:42:00.163Z,101461.65
2018-09-27T14:44:27.540Z,101459.80
2018-09-27T14:46:55.000Z,101453.94
2018-09-27T14:49:22.510Z,101442.20
2018-09-27T14:51:49.950Z,101443.91
2018-09-27T14:54:17.454Z,101440.22
2018-09-27T14:56:44.874Z,101441.88
2018-09-27T14:59:12.352Z,101436.36
2018-09-27T15:01:39.923Z,101439.70
2018-09-27T15:04:07.478Z,101432.98
2018-09-27T15:06:34.982Z,101428.58
2018-09-27T15:09:02.591Z,101428.38
2018-09-27T15:11:30.265Z,101425.50
2018-09-27T15:13:57.666Z,101422.12
2018-09-27T15:16:25.375Z,101419.61
2018-09-27T15:18:53.206Z,101416.38
2018-09-27T15:21:20.628Z,101410.14
2018-09-27T15:23:48.201Z,101404.27
2018-09-27T15:26:15.606Z,101400.22
2018-09-27T15:28:43.042Z,101390.83
2018-09-27T15:31:10.587Z,101396.51
2018-09-27T15:33:38.002Z,101388.41
2018-09-27T15:36:05.420Z,101390.38
2018-09-27T15:38:33.008Z,101383.47
2018-09-27T15:41:00.466Z,101387.25
2018-09-27T15:43:27.922Z,101383.38
2018-09-27T15:45:55.455Z,101371.82
2018-09-27T15:48:22.918Z,101373.97
2018-09-27T15:50:50.337Z,101368.95
2018-09-27T15:53:18.033Z,101362.36
2018-09-27T15:55:45.493Z,101364.13
2018-09-27T15:58:12.973Z,101366.90
2018-09-27T16:00:40.583Z,101363.97
2018-09-27T16:03:08.077Z,101363.59
2018-09-27T16:05:35.501Z,101359.83
2018-09-27T16:08:03.057Z,101356.29
2018-09-27T16:10:30.663Z,101347.98
2018-09-27T16:12:58.443Z,101345.11
2018-09-27T16:15:26.348Z,101341.50
2018-09-27T16:17:54.081Z,101337.72
2018-09-27T16:20:21.663Z,101341.45
2018-09-27T16:22:49.226Z,101334.02
2018-09-27T16:25:16.918Z,101335.73
2018-09-27T16:27:44.615Z,101334.80
2018-09-27T16:30:12.330Z,101337.27
2018-09-27T16:32:39.861Z,101329.09
2018-09-27T16:35:07.521Z,101327.64
2018-09-27T16:37:35.555Z,101327.44
2018-09-27T16:40:03.835Z,101322.89
2018-09-27T16:42:31.395Z,101318.25
2018-09-27T16:44:59.211Z,101320.92
2018-09-27T16:47:26.775Z,101324.61
2018-09-27T16:49:54.649Z,101321.09
2018-09-27T16:52:22.926Z,101320.61
2018-09-27T16:54:50.348Z,101313.50
2018-09-27T16:57:18.859Z,101311.36
2018-09-27T16:59:47.293Z,101312.89
2018-09-27T17:02:16.710Z,101305.51
2018-09-27T17:04:46.690Z,101296.98
2018-09-27T17:07:17.261Z,101300.84
2018-09-27T17:09:44.985Z,101299.69
2018-09-27T17:12:12.593Z,101305.03
2018-09-27T17:14:40.695Z,101299.72
2018-09-27T17:17:08.691Z,101298.73
2018-09-27T17:19:36.491Z,101288.86
2018-09-27T17:22:04.159Z,101293.58
2018-09-27T17:24:32.623Z,101294.55
2018-09-27T17:27:00.559Z,101297.42
2018-09-27T17:29:29.319Z,101295.83
2018-09-27T17:31:57.411Z,101296.44
2018-09-27T17:34:26.961Z,101293.06
2018-09-27T17:36:54.601Z,101292.34
2018-09-27T17:39:23.723Z,101286.39
2018-09-27T17:41:51.500Z,101286.26
2018-09-27T17:44:19.418Z,101280.78
2018-09-27T17:46:47.232Z,101282.69
2018-09-27T17:49:15.041Z,101284.83
2018-09-27T17:51:43.082Z,101287.44
2018-09-27T17:54:10.627Z,101285.36
2018-09-27T17:56:38.423Z,101288.31
2018-09-27T17:59:05.999Z,101291.37
2018-09-27T18:01:33.590Z,101292.74
2018-09-27T18:04:01.036Z,101295.56
2018-09-27T18:06:28.609Z,101292.95
2018-09-27T18:08:56.055Z,101292.75
2018-09-27T18:11:24.106Z,101294.58
2018-09-27T18:13:52.803Z,101293.38
2018-09-27T18:16:20.307Z,101294.31
2018-09-27T18:18:47.805Z,101290.22
2018-09-27T18:21:15.917Z,101293.69
2018-09-27T18:23:43.389Z,101291.37
2018-09-27T18:26:10.909Z,101282.98
2018-09-27T18:28:38.442Z,101285.40
2018-09-27T18:31:05.956Z,101286.40
2018-09-27T18:33:33.473Z,101284.86
2018-09-27T18:36:00.993Z,101282.47
2018-09-27T18:38:28.431Z,101282.84
2018-09-27T18:40:55.947Z,101279.02
2018-09-27T18:43:23.660Z,101280.70
2018-09-27T18:45:51.125Z,101278.91
2018-09-27T18:48:18.699Z,101281.47
2018-09-27T18:50:46.166Z,101276.88
2018-09-27T18:53:13.711Z,101273.87
2018-09-27T18:55:41.331Z,101273.51
2018-09-27T18:58:08.761Z,101270.52
2018-09-27T19:00:36.356Z,101270.13
2018-09-27T19:03:03.812Z,101272.78
2018-09-27T19:05:31.239Z,101271.82
2018-09-27T19:07:58.855Z,101265.34
2018-09-27T19:10:26.661Z,101267.99
2018-09-27T19:12:54.387Z,101259.69
2018-09-27T19:15:21.965Z,101264.84
2018-09-27T19:17:49.571Z,101260.98
2018-09-27T19:20:17.325Z,101262.91
2018-09-27T19:22:45.181Z,101255.45
2018-09-27T19:25:12.708Z,101261.48
2018-09-27T19:27:40.434Z,101254.37
2018-09-27T19:30:08.033Z,101249.66
2018-09-27T19:32:35.628Z,101247.63
2018-09-27T19:35:03.365Z,101251.45
2018-09-27T19:37:31.247Z,101248.34
2018-09-27T19:39:59.098Z,101251.52
2018-09-27T19:42:26.787Z,101254.27
2018-09-27T19:44:54.281Z,101253.52
2018-09-27T19:47:21.997Z,101249.18
2018-09-27T19:49:49.553Z,101244.60
2018-09-27T19:52:18.497Z,101247.95
2018-09-27T19:54:46.098Z,101244.69
2018-09-27T19:57:13.588Z,101238.78
2018-09-27T19:59:41.030Z,101240.20
2018-09-27T20:02:08.550Z,101233.55
2018-09-27T20:04:36.287Z,101227.03
2018-09-27T20:07:03.856Z,101230.52
2018-09-27T20:09:31.445Z,101235.65
2018-09-27T20:11:58.908Z,101232.03
2018-09-27T20:14:26.348Z,101240.66
2018-09-27T20:16:53.906Z,101242.75
2018-09-27T20:19:21.554Z,101240.91
2018-09-27T20:21:49.121Z,101249.55
2018-09-27T20:24:16.711Z,101247.14
2018-09-27T20:26:44.166Z,101251.05
2018-09-27T20:29:11.908Z,101248.05
2018-09-27T20:31:39.472Z,101253.20
2018-09-27T20:34:07.000Z,101252.94
2018-09-27T20:36:34.497Z,101250.04
2018-09-27T20:39:02.027Z,101247.23
2018-09-27T20:41:29.498Z,101249.26
2018-09-27T20:43:56.939Z,101246.36
2018-09-27T20:46:24.395Z,101246.59
2018-09-27T20:48:51.884Z,101245.61
2018-09-27T20:51:20.948Z,101244.98
2018-09-27T20:53:49.263Z,101238.48
2018-09-27T20:56:16.804Z,101241.98
2018-09-27T20:58:44.261Z,101243.99
2018-09-27T21:01:11.738Z,101240.47
2018-09-27T21:03:39.193Z,101244.88
2018-09-27T21:06:06.997Z,101240.30
2018-09-27T21:08:34.561Z,101233.45
2018-09-27T21:11:02.020Z,101233.89
2018-09-27T21:13:29.489Z,101240.36
2018-09-27T21:15:56.987Z,101239.08
2018-09-27T21:18:24.397Z,101234.92
2018-09-27T21:20:51.973Z,101236.84
2018-09-27T21:23:19.567Z,101233.56
2018-09-27T21:25:47.029Z,101232.81
2018-09-27T21:28:14.489Z,101225.95
2018-09-27T21:30:42.062Z,101223.63
2018-09-27T21:33:09.707Z,101225.38
2018-09-27T21:35:37.235Z,101225.34
2018-09-27T21:38:04.686Z,101223.03
2018-09-27T21:40:32.157Z,101220.02
2018-09-27T21:42:59.547Z,101220.22
2018-09-27T21:45:26.987Z,101220.45
2018-09-27T21:47:54.437Z,101219.59
2018-09-27T21:50:21.969Z,101217.41
2018-09-27T21:52:49.330Z,101218.81
2018-09-27T21:55:16.790Z,101220.59
2018-09-27T21:57:44.193Z,101216.77
2018-09-27T22:00:11.957Z,101211.69
2018-09-27T22:02:39.497Z,101207.38
2018-09-27T22:05:07.143Z,101203.88
2018-09-27T22:07:36.788Z,101211.91
2018-09-27T22:10:04.341Z,101219.06
2018-09-27T22:12:31.753Z,101213.28
2018-09-27T22:14:59.207Z,101212.65
2018-09-27T22:17:26.582Z,101217.56
2018-09-27T22:19:53.976Z,101213.70
2018-09-27T22:22:21.550Z,101213.52
2018-09-27T22:24:49.013Z,101216.92
2018-09-27T22:27:16.545Z,101212.80
2018-09-27T22:29:44.050Z,101214.60
2018-09-27T22:32:11.488Z,101215.84
2018-09-27T22:34:38.946Z,101212.20
2018-09-27T22:37:06.403Z,101205.56
2018-09-27T22:39:34.244Z,101201.65
2018-09-27T22:42:01.692Z,101199.79
2018-09-27T22:44:29.291Z,101196.23
2018-09-27T22:46:56.811Z,101191.28
2018-09-27T22:49:24.281Z,101191.65
2018-09-27T22:51:51.771Z,101193.20
2018-09-27T22:54:19.269Z,101191.11
2018-09-27T22:56:46.837Z,101195.39
2018-09-27T22:59:14.357Z,101188.29
2018-09-27T23:01:41.937Z,101186.06
2018-09-27T23:04:09.444Z,101191.75
2018-09-27T23:06:36.946Z,101192.02
2018-09-27T23:09:05.804Z,101187.47
2018-09-27T23:11:33.419Z,101185.15
2018-09-27T23:14:02.298Z,101181.38
2018-09-27T23:16:29.724Z,101181.60
2018-09-27T23:18:57.121Z,101184.27
2018-09-27T23:21:24.559Z,101173.38
2018-09-27T23:23:52.074Z,101176.19
2018-09-27T23:26:19.465Z,101174.45
2018-09-27T23:28:46.894Z,101170.50
2018-09-27T23:31:14.393Z,101179.77
2018-09-27T23:33:41.810Z,101174.88
2018-09-27T23:36:09.247Z,101172.55
2018-09-27T23:38:36.740Z,101172.24
2018-09-27T23:41:04.333Z,101168.66
2018-09-27T23:43:31.765Z,101164.87
2018-09-27T23:45:59.545Z,101160.92
2018-09-27T23:48:26.947Z,101162.44
2018-09-27T23:50:54.507Z,101164.87
2018-09-27T23:53:21.909Z,101166.67
2018-09-27T23:55:49.392Z,101167.62
2018-09-27T23:58:16.845Z,101171.70
